Airport View

Enter AWOS ICAO identifier for current METAR.

ex. KFNL

KHNR 210015Z AUTO 17010KT 10SM FEW048 26/20 A2991 RMK AO2 PWINO

21 Sep 2019 00:24

Frequency: 118.325

Phone: 712-744-4400

Other Area AWOS: KAIO - KADU - KDNS - KCBF

TAF KOMA 202325Z 2100/2124 16015G25KT P6SM VCSH BKN050 FM210400 17012G22KT P6SM BKN020 FM211600 20013G21KT P6SM BKN030 FM212000 22009KT P6SM SCT060